createdAt,value
2019-05-16T00:03:24.224Z,3.53
2019-05-16T00:08:28.947Z,6.20
2019-05-16T00:13:33.858Z,3.27
2019-05-16T00:18:38.844Z,2.57
2019-05-16T00:23:44.079Z,1.90
2019-05-16T00:28:48.696Z,2.37
2019-05-16T00:33:53.570Z,9.57
2019-05-16T00:38:58.075Z,4.60
2019-05-16T00:44:03.093Z,5.47
2019-05-16T00:49:08.405Z,3.87
2019-05-16T00:54:13.283Z,2.40
2019-05-16T00:59:18.860Z,3.50
2019-05-16T01:04:23.484Z,3.17
2019-05-16T01:09:28.286Z,3.60
2019-05-16T01:14:34.115Z,3.37
2019-05-16T01:19:39.011Z,6.37
2019-05-16T01:24:43.708Z,3.25
2019-05-16T01:29:48.662Z,3.67
2019-05-16T01:34:53.213Z,2.83
2019-05-16T01:39:58.813Z,2.67
2019-05-16T01:45:03.746Z,5.30
2019-05-16T01:50:08.834Z,3.90
2019-05-16T01:55:13.514Z,4.78
2019-05-16T02:00:24.810Z,3.27
2019-05-16T02:05:25.151Z,4.33
2019-05-16T02:10:30.005Z,4.10
2019-05-16T02:15:35.084Z,4.07
2019-05-16T02:20:40.835Z,4.07
2019-05-16T02:25:45.182Z,13.07
2019-05-16T02:30:51.381Z,5.10
2019-05-16T02:35:56.061Z,4.43
2019-05-16T02:41:03.063Z,4.57
2019-05-16T02:46:11.610Z,3.57
2019-05-16T02:51:14.405Z,4.73
2019-05-16T02:56:21.122Z,5.97
2019-05-16T03:01:25.559Z,4.23
2019-05-16T03:06:32.225Z,6.17
2019-05-16T03:11:37.204Z,7.20
2019-05-16T03:16:42.024Z,7.97
2019-05-16T03:21:50.642Z,9.10
2019-05-16T03:26:53.963Z,4.87
2019-05-16T03:32:03.105Z,9.73
2019-05-16T03:37:05.492Z,6.23
2019-05-16T03:42:12.757Z,8.10
2019-05-16T03:47:16.939Z,4.70
2019-05-16T03:52:21.758Z,8.07
2019-05-16T03:57:26.405Z,6.70
2019-05-16T04:02:31.205Z,7.60
2019-05-16T04:07:35.640Z,7.93
2019-05-16T04:12:41.936Z,12.30
2019-05-16T04:17:46.129Z,6.60
2019-05-16T04:22:51.469Z,5.73
2019-05-16T04:27:56.703Z,7.03
2019-05-16T04:33:01.841Z,6.97
2019-05-16T04:38:06.413Z,7.27
2019-05-16T04:43:11.462Z,6.87
2019-05-16T04:48:16.492Z,7.53
2019-05-16T04:53:21.295Z,5.97
2019-05-16T04:58:26.085Z,6.77
2019-05-16T05:03:31.527Z,5.33
2019-05-16T05:08:50.601Z,7.13
2019-05-16T05:13:42.650Z,4.83
2019-05-16T05:18:47.574Z,5.80
2019-05-16T05:23:52.120Z,5.23
2019-05-16T05:28:56.957Z,9.10
2019-05-16T05:34:02.750Z,6.57
2019-05-16T05:39:12.082Z,5.17
2019-05-16T05:44:13.808Z,6.50
2019-05-16T05:49:20.361Z,4.70
2019-05-16T05:54:25.258Z,6.23
2019-05-16T05:59:30.637Z,11.40
2019-05-16T06:04:35.442Z,3.27
2019-05-16T06:09:52.446Z,7.33
2019-05-16T06:14:46.648Z,6.15
2019-05-16T06:19:51.827Z,4.22
2019-05-16T06:24:56.675Z,5.53
2019-05-16T06:30:01.226Z,4.10
2019-05-16T06:35:06.267Z,4.28
2019-05-16T06:40:11.201Z,4.03
2019-05-16T06:45:15.959Z,7.05
2019-05-16T06:50:21.067Z,8.95
2019-05-16T06:55:25.744Z,9.83
2019-05-16T07:00:30.283Z,8.73
2019-05-16T07:05:35.451Z,6.07
2019-05-16T07:10:41.448Z,6.97
2019-05-16T07:15:46.117Z,6.50
2019-05-16T07:20:51.389Z,9.90
2019-05-16T07:25:56.602Z,8.43
2019-05-16T07:31:14.512Z,8.13
2019-05-16T07:36:09.954Z,7.83
2019-05-16T07:41:14.290Z,14.37
2019-05-16T07:46:20.594Z,10.27
2019-05-16T07:51:25.291Z,8.53
2019-05-16T07:56:31.026Z,8.60
2019-05-16T08:01:36.177Z,11.27
2019-05-16T08:06:41.542Z,9.83
2019-05-16T08:11:46.411Z,10.33
2019-05-16T08:16:51.148Z,9.47
2019-05-16T08:21:55.664Z,10.30
2019-05-16T08:27:01.344Z,7.93
2019-05-16T08:32:05.973Z,9.03
2019-05-16T08:37:33.088Z,9.40
2019-05-16T08:42:17.046Z,7.97
2019-05-16T08:47:21.560Z,7.03
2019-05-16T08:52:26.987Z,7.13
2019-05-16T08:57:33.324Z,10.70
2019-05-16T09:02:41.981Z,6.90
2019-05-16T09:07:44.951Z,6.30
2019-05-16T09:12:49.526Z,8.43
2019-05-16T09:17:53.982Z,8.43
2019-05-16T09:22:58.678Z,7.83
2019-05-16T09:28:03.405Z,9.70
2019-05-16T09:33:07.861Z,6.90
2019-05-16T09:38:12.454Z,9.00
2019-05-16T09:43:17.859Z,7.63
2019-05-16T09:48:22.471Z,9.23
2019-05-16T09:53:27.641Z,11.27
2019-05-16T09:58:32.762Z,16.33
2019-05-16T10:03:37.700Z,6.80
2019-05-16T10:08:42.384Z,7.57
2019-05-16T10:13:47.267Z,8.43
2019-05-16T10:18:52.083Z,5.40
2019-05-16T10:23:56.874Z,6.90
2019-05-16T10:29:01.522Z,9.40
2019-05-16T10:34:07.832Z,7.00
2019-05-16T10:39:12.581Z,5.80
2019-05-16T10:44:17.671Z,8.53
2019-05-16T10:49:34.371Z,6.57
2019-05-16T10:54:28.673Z,6.90
2019-05-16T11:04:53.305Z,7.53
2019-05-16T11:09:55.743Z,8.40
2019-05-16T11:14:53.705Z,9.13
2019-05-16T11:19:58.628Z,10.03
2019-05-16T11:25:16.407Z,9.05
2019-05-16T11:30:09.952Z,9.45
2019-05-16T11:35:17.206Z,16.00
2019-05-16T11:40:21.899Z,9.00
2019-05-16T11:45:27.195Z,7.67
2019-05-16T11:50:31.859Z,7.20
2019-05-16T11:55:50.571Z,10.40
2019-05-16T12:00:42.681Z,7.95
2019-05-16T12:05:48.299Z,8.83
2019-05-16T12:10:54.112Z,6.95
2019-05-16T12:15:58.880Z,10.15
2019-05-16T12:21:03.909Z,7.25
2019-05-16T12:26:08.581Z,7.25
2019-05-16T12:31:13.598Z,8.40
2019-05-16T12:36:18.579Z,5.42
2019-05-16T12:41:23.399Z,11.55
2019-05-16T12:46:27.905Z,6.92
2019-05-16T12:51:32.583Z,6.03
2019-05-16T12:56:37.860Z,6.15
2019-05-16T13:01:42.355Z,9.53
2019-05-16T13:06:47.558Z,5.85
2019-05-16T13:11:52.691Z,7.65
2019-05-16T13:16:57.328Z,5.07
2019-05-16T13:22:02.188Z,8.38
2019-05-16T13:27:08.399Z,5.17
2019-05-16T13:32:13.085Z,5.62
2019-05-16T13:37:18.183Z,4.87
2019-05-16T13:42:27.266Z,6.47
2019-05-16T13:47:32.902Z,9.60
2019-05-16T13:52:37.718Z,5.53
2019-05-16T13:57:42.938Z,5.05
2019-05-16T14:02:47.780Z,7.67
2019-05-16T14:07:52.954Z,4.75
2019-05-16T14:12:57.871Z,4.62
2019-05-16T14:18:02.587Z,11.15
2019-05-16T14:23:08.518Z,5.12
2019-05-16T14:28:13.888Z,6.95
2019-05-16T14:33:18.514Z,5.90
2019-05-16T14:38:26.984Z,6.72
2019-05-16T14:43:31.950Z,6.03
2019-05-16T14:48:39.529Z,5.23
2019-05-16T14:53:46.901Z,4.87
2019-05-16T14:58:51.358Z,4.57
2019-05-16T15:03:56.570Z,6.22
2019-05-16T15:09:01.307Z,8.00
2019-05-16T15:14:07.277Z,5.90
2019-05-16T15:19:13.511Z,4.67
2019-05-16T15:24:18.855Z,5.70
2019-05-16T15:29:27.719Z,5.45
2019-05-16T15:34:34.693Z,5.40
2019-05-16T15:39:39.842Z,7.22
2019-05-16T15:44:44.482Z,6.83
2019-05-16T15:49:49.694Z,5.67
2019-05-16T15:54:56.135Z,5.27
2019-05-16T16:00:01.130Z,4.37
2019-05-16T16:05:07.200Z,9.93
2019-05-16T16:10:12.481Z,4.30
2019-05-16T16:15:17.588Z,4.40
2019-05-16T16:20:22.204Z,6.50
2019-05-16T16:25:27.494Z,4.40
2019-05-16T16:30:32.522Z,5.07
2019-05-16T16:35:38.089Z,4.93
2019-05-16T16:40:42.700Z,6.33
2019-05-16T16:45:47.946Z,6.90
2019-05-16T16:50:52.737Z,5.67
2019-05-16T16:55:57.218Z,9.30
2019-05-16T17:01:02.233Z,5.70
2019-05-16T17:06:07.941Z,4.93
2019-05-16T17:11:12.270Z,6.95
2019-05-16T17:16:25.561Z,6.30
2019-05-16T17:21:23.813Z,12.83
2019-05-16T17:26:28.705Z,5.17
2019-05-16T17:31:33.963Z,9.55
2019-05-16T17:36:39.514Z,15.67
2019-05-16T17:41:47.813Z,6.53
2019-05-16T17:46:52.931Z,10.67
2019-05-16T17:51:57.717Z,17.97
2019-05-16T17:57:03.205Z,18.97
2019-05-16T18:02:08.521Z,25.33
2019-05-16T18:07:14.899Z,18.98
2019-05-16T18:12:19.690Z,9.97
2019-05-16T18:17:26.834Z,9.20
2019-05-16T18:22:31.458Z,6.60
2019-05-16T18:27:37.623Z,19.43
2019-05-16T18:32:42.999Z,7.40
2019-05-16T18:37:48.577Z,7.60
2019-05-16T18:42:53.027Z,5.83
2019-05-16T18:47:57.690Z,11.67
2019-05-16T18:53:03.211Z,6.93
2019-05-16T18:58:08.949Z,4.93
2019-05-16T19:03:16.338Z,5.30
2019-05-16T19:08:22.184Z,6.77
2019-05-16T19:13:27.743Z,6.63
2019-05-16T19:18:32.978Z,10.97
2019-05-16T19:23:37.803Z,11.00
2019-05-16T19:28:43.154Z,18.70
2019-05-16T19:33:48.837Z,13.47
2019-05-16T19:38:53.704Z,7.57
2019-05-16T19:44:00.214Z,10.13
2019-05-16T19:49:06.466Z,10.80
2019-05-16T19:54:11.597Z,14.57
2019-05-16T19:59:16.968Z,6.37
2019-05-16T20:04:22.210Z,4.70
2019-05-16T20:09:30.188Z,9.03
2019-05-16T20:14:33.845Z,12.10
2019-05-16T20:19:38.709Z,8.07
2019-05-16T20:24:43.792Z,11.90
2019-05-16T20:29:48.628Z,11.50
2019-05-16T20:34:53.026Z,6.87
2019-05-16T20:39:58.535Z,7.63
2019-05-16T20:45:03.072Z,5.93
2019-05-16T20:50:09.176Z,8.60
2019-05-16T20:55:14.075Z,5.80
2019-05-16T21:00:21.232Z,11.80
2019-05-16T21:05:26.842Z,7.07
2019-05-16T21:10:31.620Z,6.63
2019-05-16T21:15:37.264Z,7.57
2019-05-16T21:20:43.213Z,7.87
2019-05-16T21:25:47.787Z,9.33
2019-05-16T21:30:52.891Z,11.00
2019-05-16T21:35:58.659Z,10.13
2019-05-16T21:41:03.900Z,16.40
2019-05-16T21:46:10.764Z,12.87
2019-05-16T21:51:17.038Z,12.10
2019-05-16T21:56:22.269Z,10.87
2019-05-16T22:01:27.197Z,13.13
2019-05-16T22:06:31.876Z,13.87
2019-05-16T22:11:37.107Z,14.37
2019-05-16T22:16:42.049Z,12.53
2019-05-16T22:21:50.186Z,16.05
2019-05-16T22:26:57.060Z,12.67
2019-05-16T22:32:01.554Z,11.73
2019-05-16T22:37:06.582Z,12.93
2019-05-16T22:42:11.367Z,12.45
2019-05-16T22:47:17.184Z,10.40
2019-05-16T22:52:21.848Z,14.33
2019-05-16T22:57:27.093Z,15.30
2019-05-16T23:02:31.749Z,15.40
2019-05-16T23:07:36.901Z,14.20
2019-05-16T23:12:41.957Z,14.63
2019-05-16T23:17:46.809Z,13.87
2019-05-16T23:22:51.640Z,13.33
2019-05-16T23:27:56.725Z,15.73
2019-05-16T23:33:01.978Z,15.60
2019-05-16T23:38:19.064Z,15.23
2019-05-16T23:43:13.453Z,14.30
2019-05-16T23:48:18.554Z,18.73
2019-05-16T23:53:23.567Z,15.53
2019-05-16T23:58:28.054Z,18.53
